Time;durP1;ratioP1;P1;durP2;ratioP2;P2;SDS_P1;SDS_P2;PMS_P1;PMS_P2;Temp;Humidity;BMP_temperature;BMP_pressure;BME280_temperature;BME280_humidity;BME280_pressure;Samples;Min_cycle;Max_cycle;Signal;HPM_P1;HPM_P2
2021/03/09 00:02:27;;;;;;;16.38;9.10;;;1.80;99.90;;;;;;21169719;28;20057;-77
2021/03/09 00:12:28;;;;;;;17.33;10.03;;;1.90;99.90;;;;;;21169239;28;20026;-77
2021/03/09 00:22:29;;;;;;;19.80;10.17;;;1.90;99.90;;;;;;21150033;28;20265;-77
2021/03/09 00:32:30;;;;;;;21.00;9.97;;;1.70;99.90;;;;;;21149379;28;20331;-78
2021/03/09 00:42:30;;;;;;;25.07;11.07;;;1.60;99.90;;;;;;21148454;28;20289;-77
2021/03/09 00:52:31;;;;;;;20.30;10.27;;;1.50;99.90;;;;;;21147908;28;20286;-78
2021/03/09 01:02:32;;;;;;;24.52;10.82;;;0.90;99.90;;;;;;21146860;28;20353;-77
2021/03/09 01:12:33;;;;;;;;;;;0.60;99.90;;;;;;21164773;28;20065;-77
2021/03/09 01:22:33;;;;;;;22.50;10.43;;;0.50;99.90;;;;;;21163742;28;20453;-78
2021/03/09 01:32:35;;;;;;;;;;;0.70;99.90;;;;;;21163091;28;20277;-77
2021/03/09 01:42:36;;;;;;;26.87;12.03;;;0.30;99.90;;;;;;21143971;28;19919;-77
2021/03/09 01:52:39;;;;;;;21.42;10.68;;;-0.30;99.90;;;;;;21142795;28;20066;-77
2021/03/09 02:02:40;;;;;;;25.20;11.68;;;-0.60;99.90;;;;;;21142202;28;20024;-77
2021/03/09 02:13:06;;;;;;;22.02;11.18;;;-0.40;99.90;;;;;;21158501;28;20027;-77
2021/03/09 02:23:51;;;;;;;25.17;11.45;;;-0.60;99.90;;;;;;21159459;28;20028;-77
2021/03/09 02:34:00;;;;;;;25.70;11.85;;;-0.60;99.90;;;;;;21158611;28;20371;-77
2021/03/09 02:44:03;;;;;;;24.08;11.27;;;-0.90;99.90;;;;;;21157785;28;20034;-77
2021/03/09 02:54:05;;;;;;;26.58;11.85;;;-1.10;99.90;;;;;;21122559;28;20031;-77
2021/03/09 03:04:09;;;;;;;22.80;12.20;;;-1.10;99.90;;;;;;21138796;28;20034;-77
2021/03/09 03:14:11;;;;;;;24.73;12.18;;;-1.30;99.90;;;;;;21157160;28;20490;-77
2021/03/09 03:24:14;;;;;;;29.42;11.90;;;-1.40;99.90;;;;;;21169628;28;20375;-77
2021/03/09 03:34:15;;;;;;;23.92;11.55;;;-1.40;99.90;;;;;;21154039;28;20084;-77
2021/03/09 03:44:16;;;;;;;24.30;12.45;;;-1.50;99.90;;;;;;21153424;28;20024;-76
2021/03/09 03:55:02;;;;;;;30.60;12.13;;;-1.60;99.90;;;;;;21171017;28;20023;-77
2021/03/09 04:05:06;;;;;;;22.95;12.05;;;-1.40;99.90;;;;;;20736548;28;20107;-77
2021/03/09 04:15:08;;;;;;;27.48;12.13;;;-1.70;99.90;;;;;;20695864;28;20581;-78
2021/03/09 04:25:10;;;;;;;31.80;13.45;;;-1.60;99.90;;;;;;20718315;28;20034;-77
2021/03/09 04:35:12;;;;;;;27.33;13.57;;;-1.70;99.90;;;;;;21082725;22;20104;-73
2021/03/09 04:45:13;;;;;;;30.63;13.43;;;-1.60;99.90;;;;;;21072828;28;20099;-73
2021/03/09 04:55:19;;;;;;;24.83;13.15;;;-1.80;99.90;;;;;;20998047;28;20035;-75
2021/03/09 05:05:24;;;;;;;28.38;14.15;;;-1.90;99.90;;;;;;20997341;28;20509;-73
2021/03/09 05:15:25;;;;;;;25.90;11.43;;;-1.90;99.90;;;;;;20979150;28;20490;-73
2021/03/09 05:25:25;;;;;;;22.92;12.32;;;-1.90;99.90;;;;;;20995877;28;20097;-75
2021/03/09 05:35:26;;;;;;;28.52;13.50;;;-1.40;99.90;;;;;;20999303;28;20081;-74
2021/03/09 05:45:27;;;;;;;29.52;14.10;;;-1.10;99.90;;;;;;20996759;28;20063;-74
2021/03/09 05:55:28;;;;;;;34.55;15.13;;;-0.90;99.90;;;;;;20993983;28;20024;-74
2021/03/09 06:05:29;;;;;;;28.95;13.57;;;-1.30;99.90;;;;;;20992860;28;20059;-76
2021/03/09 06:15:30;;;;;;;35.95;15.95;;;-1.30;99.90;;;;;;20992294;28;20032;-75
2021/03/09 06:25:32;;;;;;;32.42;14.95;;;-1.20;99.90;;;;;;20991488;28;20027;-75
2021/03/09 06:35:34;;;;;;;28.98;14.38;;;-1.70;99.90;;;;;;20954973;28;20052;-74
2021/03/09 06:45:35;;;;;;;33.85;16.02;;;-1.40;99.90;;;;;;20971975;28;20028;-74
2021/03/09 06:55:36;;;;;;;33.05;14.98;;;-1.30;99.90;;;;;;20989456;28;20120;-74
2021/03/09 07:05:55;;;;;;;26.10;13.57;;;-0.60;99.90;;;;;;20989919;28;20033;-74
2021/03/09 07:15:57;;;;;;;26.02;12.32;;;0.20;99.90;;;;;;20991484;28;20072;-74
2021/03/09 07:26:05;;;;;;;26.35;13.98;;;0.90;99.90;;;;;;20988190;28;20062;-75
2021/03/09 07:36:06;;;;;;;28.52;14.43;;;1.60;99.90;;;;;;20969817;28;20033;-74
2021/03/09 07:46:08;;;;;;;31.60;15.30;;;2.10;99.90;;;;;;20984752;28;20047;-75
2021/03/09 07:56:12;;;;;;;31.52;15.32;;;2.40;99.90;;;;;;20987215;28;20491;-74
2021/03/09 08:06:15;;;;;;;27.70;15.40;;;2.40;99.90;;;;;;20991756;28;20070;-75
2021/03/09 08:16:24;;;;;;;31.70;15.13;;;2.40;99.90;;;;;;20984479;28;20036;-75
2021/03/09 08:26:46;;;;;;;23.80;12.70;;;3.20;99.90;;;;;;21000388;28;20032;-75
2021/03/09 08:36:46;;;;;;;24.23;13.20;;;3.70;99.90;;;;;;20999472;28;20542;-75
2021/03/09 08:47:03;;;;;;;19.40;10.93;;;5.10;99.90;;;;;;20980540;28;20068;-75
2021/03/09 08:57:13;;;;;;;24.42;11.73;;;6.10;99.90;;;;;;20997701;28;20032;-74
2021/03/09 09:07:19;;;;;;;21.48;11.82;;;6.70;99.90;;;;;;20997454;28;20035;-75
2021/03/09 09:17:20;;;;;;;21.80;12.70;;;7.10;99.90;;;;;;20982442;28;20106;-75
2021/03/09 09:27:21;;;;;;;25.43;12.67;;;6.90;99.90;;;;;;20995678;28;20056;-75
2021/03/09 09:37:22;;;;;;;22.67;12.33;;;7.00;99.90;;;;;;20994091;28;20071;-75
2021/03/09 09:47:24;;;;;;;26.17;12.53;;;7.20;99.90;;;;;;20993529;28;20039;-75
2021/03/09 09:57:24;;;;;;;23.70;13.27;;;6.40;99.90;;;;;;20992854;28;20074;-75
2021/03/09 10:07:28;;;;;;;23.37;13.20;;;6.30;99.90;;;;;;20992171;28;20032;-75
2021/03/09 10:17:28;;;;;;;25.48;13.30;;;6.80;99.90;;;;;;20991014;28;20041;-75
2021/03/09 10:27:30;;;;;;;25.90;14.40;;;7.10;99.90;;;;;;20988857;28;20075;-74
2021/03/09 10:37:39;;;;;;;23.27;13.67;;;7.60;99.90;;;;;;21026170;22;20040;-76
2021/03/09 10:47:39;;;;;;;26.10;13.27;;;7.60;99.90;;;;;;21074231;28;20076;-76
2021/03/09 10:57:41;;;;;;;30.53;14.80;;;7.10;99.90;;;;;;21055630;28;20032;-76
2021/03/09 11:07:42;;;;;;;30.47;16.70;;;7.70;99.90;;;;;;21054820;28;20079;-76
2021/03/09 11:17:44;;;;;;;34.83;16.73;;;7.00;99.90;;;;;;21072601;28;20379;-75
2021/03/09 11:27:45;;;;;;;35.08;16.80;;;7.60;99.90;;;;;;21053730;28;20028;-76
2021/03/09 11:37:46;;;;;;;39.50;17.70;;;7.20;99.90;;;;;;21072990;28;20032;-76
2021/03/09 11:47:46;;;;;;;23.37;12.90;;;7.30;99.90;;;;;;21057899;28;20059;-75
2021/03/09 11:57:47;;;;;;;28.03;16.33;;;7.50;99.90;;;;;;21086755;28;20063;-76
2021/03/09 12:07:49;;;;;;;33.73;17.00;;;7.80;99.90;;;;;;21055213;28;20024;-76
2021/03/09 12:17:50;;;;;;;33.80;18.13;;;8.10;99.90;;;;;;21086893;28;20092;-74
2021/03/09 12:27:50;;;;;;;29.80;15.80;;;8.00;99.90;;;;;;21084788;28;20489;-76
2021/03/09 12:37:51;;;;;;;33.10;17.30;;;8.20;99.90;;;;;;21083428;28;20050;-76
2021/03/09 12:47:52;;;;;;;33.57;17.43;;;8.10;99.90;;;;;;21082904;28;20124;-76
2021/03/09 12:57:53;;;;;;;31.50;18.23;;;8.40;99.90;;;;;;21081191;28;20027;-76
2021/03/09 13:07:54;;;;;;;29.23;16.97;;;8.10;99.90;;;;;;21063027;28;20031;-76
2021/03/09 13:17:55;;;;;;;38.27;18.70;;;8.10;99.90;;;;;;21045299;28;20166;-76
2021/03/09 13:27:56;;;;;;;32.60;18.33;;;8.30;99.90;;;;;;21078806;28;20114;-76
2021/03/09 13:37:56;;;;;;;30.37;16.03;;;8.50;99.90;;;;;;21078595;28;20593;-76
2021/03/09 13:47:58;;;;;;;31.77;15.77;;;9.20;99.90;;;;;;21070953;28;20069;-76
2021/03/09 13:57:59;;;;;;;37.78;16.98;;;9.00;99.90;;;;;;21002109;28;20036;-76
2021/03/09 14:08:00;;;;;;;28.60;16.57;;;8.90;99.90;;;;;;20972156;28;20060;-76
2021/03/09 14:18:01;;;;;;;33.93;16.70;;;9.40;99.90;;;;;;20962109;28;20504;-76
2021/03/09 14:28:02;;;;;;;29.83;14.77;;;9.10;99.90;;;;;;20965956;28;20068;-76
2021/03/09 14:38:03;;;;;;;28.43;14.47;;;9.70;99.90;;;;;;20952418;28;20136;-76
2021/03/09 14:48:04;;;;;;;29.73;15.80;;;9.60;99.90;;;;;;20935217;28;20036;-76
2021/03/09 14:58:05;;;;;;;32.17;15.37;;;9.60;99.90;;;;;;20984447;28;20061;-76
2021/03/09 15:08:06;;;;;;;33.10;16.33;;;9.80;99.90;;;;;;21052979;28;20032;-76
2021/03/09 15:18:07;;;;;;;33.53;15.93;;;10.30;99.90;;;;;;21062573;28;20596;-76
2021/03/09 15:28:08;;;;;;;35.55;14.38;;;9.30;99.90;;;;;;21073004;28;20483;-76
2021/03/09 15:38:09;;;;;;;27.40;14.13;;;8.50;99.90;;;;;;21151773;28;20074;-76
2021/03/09 15:48:10;;;;;;;29.30;14.03;;;8.30;99.90;;;;;;21101096;28;20068;-76
2021/03/09 15:58:11;;;;;;;33.40;14.87;;;8.40;99.90;;;;;;21031283;28;20821;-76
2021/03/09 16:08:12;;;;;;;220.23;92.80;;;8.30;99.90;;;;;;21041138;28;20028;-76
2021/03/09 16:18:13;;;;;;;51.07;21.63;;;8.10;99.90;;;;;;21057034;28;20062;-76
2021/03/09 16:28:14;;;;;;;43.47;18.07;;;7.90;99.90;;;;;;21020691;28;20039;-77
2021/03/09 16:38:15;;;;;;;35.07;14.77;;;7.80;99.90;;;;;;21013507;22;20052;-76
2021/03/09 16:48:16;;;;;;;32.37;14.77;;;7.70;99.90;;;;;;21034897;28;20553;-77
2021/03/09 16:58:17;;;;;;;25.53;12.67;;;7.60;99.90;;;;;;20972229;28;20033;-76
2021/03/09 17:08:18;;;;;;;29.90;14.10;;;7.60;99.90;;;;;;20976923;28;20028;-76
2021/03/09 17:18:18;;;;;;;36.03;14.63;;;7.50;99.90;;;;;;20976518;28;20040;-74
2021/03/09 17:28:19;;;;;;;25.93;13.00;;;7.30;99.90;;;;;;20962392;28;20128;-74
2021/03/09 17:38:20;;;;;;;40.07;13.90;;;7.10;99.90;;;;;;20909096;28;20035;-75
2021/03/09 17:48:21;;;;;;;31.70;14.13;;;7.00;99.90;;;;;;20911610;28;20020;-75
2021/03/09 17:58:22;;;;;;;27.90;14.70;;;6.90;99.90;;;;;;20894269;28;20028;-75
2021/03/09 18:08:23;;;;;;;32.70;15.20;;;6.70;99.90;;;;;;20918060;28;20021;-76
2021/03/09 18:18:23;;;;;;;33.30;14.03;;;6.80;99.90;;;;;;20909241;28;20526;-76
2021/03/09 18:28:25;;;;;;;34.83;15.67;;;6.70;99.90;;;;;;20908044;28;20043;-76
2021/03/09 18:38:26;;;;;;;36.90;17.43;;;6.60;99.90;;;;;;20907690;28;20029;-73
2021/03/09 18:48:27;;;;;;;38.57;18.63;;;6.50;99.90;;;;;;20888502;28;20382;-76
2021/03/09 18:58:28;;;;;;;;;;;6.20;99.90;;;;;;20889169;28;20033;-76
2021/03/09 19:08:29;;;;;;;120.55;58.65;;;6.30;99.90;;;;;;20905703;28;19919;-75
2021/03/09 19:18:30;;;;;;;33.37;17.17;;;6.00;99.90;;;;;;20905662;28;20053;-75
2021/03/09 19:28:31;;;;;;;29.40;15.83;;;5.90;99.90;;;;;;20888092;28;20029;-77
2021/03/09 19:38:31;;;;;;;33.77;16.03;;;5.90;99.90;;;;;;20918245;28;20036;-76
2021/03/09 19:48:32;;;;;;;31.70;15.50;;;5.80;99.90;;;;;;20958748;28;20039;-76
2021/03/09 19:58:33;;;;;;;31.60;16.27;;;5.80;99.90;;;;;;20924085;28;20671;-75
2021/03/09 20:08:34;;;;;;;26.27;13.93;;;5.70;99.90;;;;;;20892471;28;20506;-75
2021/03/09 20:18:35;;;;;;;29.30;14.50;;;5.40;99.90;;;;;;20954846;28;20035;-75
2021/03/09 20:28:36;;;;;;;29.20;13.63;;;5.20;99.90;;;;;;20980646;28;20051;-74
2021/03/09 20:38:36;;;;;;;23.97;12.77;;;5.20;99.90;;;;;;20984323;28;20063;-75
2021/03/09 20:48:37;;;;;;;30.23;14.27;;;5.20;99.90;;;;;;20976373;28;20033;-74
2021/03/09 20:58:38;;;;;;;28.57;14.30;;;5.20;99.90;;;;;;20895800;28;20729;-76
2021/03/09 21:08:39;;;;;;;31.17;13.23;;;5.20;99.90;;;;;;20893163;28;20422;-74
2021/03/09 21:18:40;;;;;;;26.97;12.77;;;5.00;99.90;;;;;;20933739;28;20120;-74
2021/03/09 21:28:40;;;;;;;26.93;14.17;;;4.90;99.90;;;;;;20948137;28;20103;-75
2021/03/09 21:38:42;;;;;;;31.53;15.30;;;5.00;99.90;;;;;;20930763;28;20033;-76
2021/03/09 21:48:43;;;;;;;33.25;15.98;;;5.10;99.90;;;;;;20913863;28;20039;-75
2021/03/09 21:58:43;;;;;;;38.40;16.33;;;5.30;99.90;;;;;;20913772;28;20025;-76
2021/03/09 22:08:44;;;;;;;31.73;16.20;;;5.10;99.90;;;;;;20920597;28;20029;-76
2021/03/09 22:18:46;;;;;;;33.35;15.15;;;4.90;99.90;;;;;;20879217;28;20053;-75
2021/03/09 22:28:48;;;;;;;30.37;15.07;;;5.00;99.90;;;;;;20907809;28;20075;-77
2021/03/09 22:38:49;;;;;;;31.30;15.50;;;4.90;99.90;;;;;;20986177;22;20038;-76
2021/03/09 22:48:49;;;;;;;34.83;17.47;;;4.50;99.90;;;;;;21055443;28;20067;-76
2021/03/09 22:58:50;;;;;;;35.50;16.67;;;4.20;99.90;;;;;;21072947;28;20024;-76
2021/03/09 23:08:51;;;;;;;35.33;15.90;;;4.30;99.90;;;;;;21078672;28;20063;-76
2021/03/09 23:18:52;;;;;;;33.60;15.33;;;4.20;99.90;;;;;;21116222;28;20028;-76
2021/03/09 23:28:53;;;;;;;27.23;13.60;;;4.30;99.90;;;;;;21127995;28;20122;-76
2021/03/09 23:38:54;;;;;;;30.30;14.00;;;4.30;99.90;;;;;;21165108;28;20039;-76
2021/03/09 23:48:55;;;;;;;28.67;13.67;;;4.20;99.90;;;;;;21149292;28;20506;-76
2021/03/09 23:58:55;;;;;;;28.87;13.70;;;3.90;99.90;;;;;;21161998;28;20035;-76
